createdAt,value
2023-07-24T11:26:35.189Z,50.80
2023-07-24T11:29:39.049Z,49.39
2023-07-24T11:32:42.714Z,45.44
2023-07-24T11:35:45.385Z,47.09
2023-07-24T11:38:48.142Z,47.81
2023-07-24T11:41:50.435Z,47.11
2023-07-24T11:44:52.569Z,46.63
2023-07-24T11:47:57.843Z,45.70
2023-07-24T11:54:17.102Z,48.84
2023-07-24T11:57:19.057Z,47.05
2023-07-24T12:00:23.398Z,46.47
2023-07-24T12:03:30.764Z,47.51
2023-07-24T12:10:29.368Z,45.61
2023-07-24T12:13:33.299Z,45.75
2023-07-24T12:16:36.244Z,46.27
2023-07-24T12:19:38.222Z,44.75
2023-07-24T12:22:40.246Z,46.37
2023-07-24T12:25:42.366Z,46.62
2023-07-24T12:28:49.620Z,46.05
2023-07-24T12:31:51.954Z,45.51
2023-07-24T12:34:59.413Z,46.68
2023-07-24T12:38:01.252Z,46.86
2023-07-24T12:41:03.174Z,47.76
2023-07-24T12:44:05.354Z,46.97
2023-07-24T12:47:07.271Z,45.83
2023-07-24T12:50:16.967Z,46.49
2023-07-24T12:53:20.612Z,46.68
2023-07-24T12:56:27.730Z,45.76
2023-07-24T12:59:30.570Z,45.90
2023-07-24T13:02:33.665Z,46.04
2023-07-24T13:05:35.674Z,45.86
2023-07-24T13:08:37.630Z,46.16
2023-07-24T13:11:49.470Z,45.11
2023-07-24T13:14:52.554Z,44.75
2023-07-24T13:17:55.046Z,44.92
2023-07-24T13:20:58.198Z,44.82
2023-07-24T13:24:00.294Z,44.94
2023-07-24T13:27:02.331Z,45.83
2023-07-24T13:30:04.647Z,45.57
2023-07-24T13:33:06.991Z,45.84
2023-07-24T13:36:09.132Z,44.34
2023-07-24T13:39:11.543Z,44.70
2023-07-24T13:42:14.516Z,46.10
2023-07-24T13:45:16.442Z,45.60
2023-07-24T13:48:18.408Z,44.15
2023-07-24T13:51:25.493Z,44.81
2023-07-24T13:54:27.739Z,44.43
2023-07-24T13:57:30.363Z,44.68
2023-07-24T14:00:32.545Z,43.47
2023-07-24T14:03:35.136Z,43.13
2023-07-24T14:06:37.122Z,44.32
2023-07-24T14:09:40.812Z,42.46
2023-07-24T14:12:48.566Z,43.07
2023-07-24T14:15:50.735Z,43.54
2023-07-24T14:18:52.755Z,43.40
2023-07-24T14:21:54.661Z,42.74
2023-07-24T14:24:56.715Z,42.81
2023-07-24T14:27:58.649Z,42.57
2023-07-24T14:31:21.597Z,42.62
2023-07-24T14:34:23.663Z,42.49
2023-07-24T14:37:25.598Z,42.24
2023-07-24T14:40:27.958Z,42.31
2023-07-24T14:43:29.972Z,41.89
2023-07-24T14:46:31.958Z,42.41
2023-07-24T14:49:33.835Z,41.27
2023-07-24T14:52:35.994Z,42.27
2023-07-24T14:55:40.906Z,42.47
2023-07-24T15:07:58.645Z,42.47
2023-07-24T15:20:15.301Z,41.48
2023-07-24T15:23:17.751Z,41.89
2023-07-24T15:26:20.257Z,41.65
2023-07-24T15:29:22.968Z,41.42
2023-07-24T15:32:24.886Z,41.64
2023-07-24T15:35:26.958Z,40.94
2023-07-24T15:38:29.827Z,41.52
2023-07-24T15:41:33.557Z,40.41
2023-07-24T15:44:35.628Z,40.82
2023-07-24T15:47:37.672Z,40.27
2023-07-24T15:50:42.299Z,40.78
2023-07-24T15:53:46.992Z,41.05
2023-07-24T15:56:58.242Z,42.38
2023-07-24T16:00:00.178Z,40.79
2023-07-24T16:03:02.136Z,40.79
2023-07-24T16:06:04.446Z,39.99
2023-07-24T16:09:06.745Z,40.74
2023-07-24T16:12:08.830Z,41.75
2023-07-24T16:15:11.506Z,41.22
2023-07-24T16:18:13.998Z,41.96
2023-07-24T16:21:15.951Z,41.54
2023-07-24T16:24:19.200Z,41.58
2023-07-24T16:27:21.210Z,41.64
2023-07-24T16:30:58.967Z,42.98
2023-07-24T16:34:01.407Z,43.91
2023-07-24T16:37:04.570Z,43.71
2023-07-24T16:40:07.456Z,43.69
2023-07-24T16:43:10.303Z,43.81
2023-07-24T16:49:17.609Z,43.60
2023-07-24T16:52:19.460Z,43.79
2023-07-24T16:55:21.554Z,44.02
2023-07-24T16:58:26.394Z,45.01
2023-07-24T17:01:28.858Z,45.70
2023-07-24T17:04:31.019Z,46.21
2023-07-24T17:07:32.980Z,47.26
2023-07-24T17:10:46.302Z,47.01
2023-07-24T17:13:48.368Z,46.24
2023-07-24T17:16:50.504Z,46.76
2023-07-24T17:19:56.526Z,46.63
2023-07-24T17:22:59.315Z,47.62
2023-07-24T17:26:01.279Z,47.70
2023-07-24T17:29:03.660Z,47.60
2023-07-24T17:32:06.548Z,48.91
2023-07-24T17:35:23.385Z,49.42
2023-07-24T17:38:25.402Z,50.69
2023-07-24T17:41:31.195Z,50.81
2023-07-24T17:44:33.755Z,50.57
2023-07-24T17:47:36.098Z,51.05
2023-07-24T17:50:38.022Z,50.87
2023-07-24T17:53:39.937Z,51.13
2023-07-24T18:01:18.504Z,52.71
2023-07-24T18:08:56.165Z,52.87
2023-07-24T18:11:58.174Z,53.69
2023-07-24T18:19:35.818Z,53.41
2023-07-24T18:23:39.262Z,53.68
2023-07-24T18:35:54.582Z,53.44
2023-07-24T18:48:10.357Z,54.19
2023-07-24T18:55:48.660Z,55.15
2023-07-24T18:58:51.846Z,55.09
2023-07-24T19:01:54.071Z,55.10
2023-07-24T19:04:56.185Z,55.56
2023-07-24T19:07:58.189Z,55.97
2023-07-24T19:11:01.098Z,55.76
2023-07-24T19:14:04.138Z,55.81
2023-07-24T19:17:06.349Z,55.94
2023-07-24T19:20:10.663Z,55.92
2023-07-24T19:23:12.964Z,56.29
2023-07-24T19:26:15.875Z,56.66
2023-07-24T19:29:18.027Z,56.85
2023-07-24T19:32:21.426Z,57.12
2023-07-24T19:35:28.779Z,57.56
2023-07-24T19:38:31.493Z,57.67
2023-07-24T19:41:34.084Z,57.53
2023-07-24T19:44:37.208Z,57.80
2023-07-24T19:47:42.764Z,58.41
2023-07-24T19:50:55.794Z,58.87
2023-07-24T19:53:58.260Z,59.16
2023-07-24T19:57:00.578Z,59.14
2023-07-24T20:00:02.659Z,59.48
2023-07-24T20:03:06.880Z,59.77
2023-07-24T20:06:11.860Z,59.59
2023-07-24T20:09:14.199Z,59.73
2023-07-24T20:12:18.029Z,59.57
2023-07-24T20:15:19.919Z,59.44
2023-07-24T20:18:21.858Z,59.47
2023-07-24T20:21:24.037Z,60.07
2023-07-24T20:24:26.033Z,60.77
2023-07-24T20:27:27.948Z,60.27
2023-07-24T20:30:29.839Z,60.29
2023-07-24T20:33:32.318Z,60.03
2023-07-24T20:36:34.478Z,60.13
2023-07-24T20:39:36.403Z,60.13
2023-07-24T20:42:41.254Z,60.05
2023-07-24T20:45:43.676Z,59.83
2023-07-24T20:48:46.062Z,60.25
2023-07-24T20:51:50.737Z,60.57
2023-07-24T20:54:54.981Z,60.35
2023-07-24T20:57:56.902Z,61.08
2023-07-24T21:00:59.018Z,60.82
2023-07-24T21:04:00.931Z,61.19
2023-07-24T21:07:06.410Z,62.18
2023-07-24T21:10:09.699Z,63.09
2023-07-24T21:13:11.778Z,63.84
2023-07-24T21:16:13.801Z,63.36
2023-07-24T21:19:15.985Z,63.42
2023-07-24T21:22:18.411Z,63.18
2023-07-24T21:25:20.496Z,63.24
2023-07-24T21:28:23.501Z,64.06
2023-07-24T21:31:25.713Z,63.28
2023-07-24T21:34:27.638Z,63.96
2023-07-24T21:37:29.834Z,63.39
2023-07-24T21:40:41.331Z,64.26
2023-07-24T21:43:44.003Z,66.61
2023-07-24T21:46:46.012Z,66.88
2023-07-24T21:49:47.977Z,68.17
2023-07-24T21:53:17.447Z,67.44
2023-07-24T21:56:19.351Z,68.03
2023-07-24T21:59:22.095Z,68.03
2023-07-24T22:02:24.400Z,68.18
2023-07-24T22:05:26.709Z,67.73
2023-07-24T22:08:29.138Z,67.59
2023-07-24T22:11:34.157Z,67.17
2023-07-24T22:14:40.060Z,67.21
2023-07-24T22:17:42.113Z,67.50
2023-07-24T22:20:44.662Z,67.54
2023-07-24T22:23:49.279Z,67.33
2023-07-24T22:26:51.569Z,66.74
2023-07-24T22:29:54.732Z,66.87
2023-07-24T22:33:04.662Z,66.57
2023-07-24T22:54:00.400Z,64.43
2023-07-24T22:57:28.664Z,64.44
2023-07-24T23:00:30.600Z,65.23
2023-07-24T23:03:33.198Z,64.82
2023-07-24T23:06:35.373Z,65.34
2023-07-24T23:09:37.412Z,66.39
2023-07-24T23:12:39.770Z,67.46
2023-07-24T23:15:42.179Z,66.69
2023-07-24T23:18:44.333Z,66.64
2023-07-24T23:21:46.336Z,66.06
2023-07-24T23:24:48.522Z,66.39
2023-07-24T23:27:50.690Z,66.78
2023-07-24T23:30:52.657Z,66.64
2023-07-24T23:33:54.660Z,66.91
2023-07-24T23:36:56.704Z,67.75
2023-07-24T23:39:58.931Z,68.12
2023-07-24T23:43:01.728Z,67.78
2023-07-24T23:46:14.635Z,68.60
2023-07-24T23:49:17.035Z,68.98
2023-07-24T23:52:22.630Z,69.42
2023-07-24T23:55:24.548Z,69.09
2023-07-24T23:58:26.475Z,69.06
